MyFlightRoute - Storm Chaser


To sort multiple columns, hold SHIFT key while clicking column header

ICAOVisibilityWindSpeedGustCeilingWeatherTempDew PointSpreadFlight CategoryMETAR
KABQ10.000 26.101.7024.4VFRKABQ 120552Z 00000KT 10SM FEW150 26/02 A3012 RMK AO2 SLP097 T02610017 10344 20256 50007
KAMA10.0011 25.6012.8012.8VFRKAMA 120553Z AUTO 14011KT 10SM CLR 26/13 A2997 RMK AO2 SLP083 T02560128 10356 20250 403670194 50004
KAPA10.008 22.2010.6011.6VFRKAPA 120553Z 20008KT 10SM SCT220 22/11 A3009 RMK AO2 SLP099 T02220106 10322 20206 53012
KASE10.007 15.00-7.2022.2VFRKASE 120553Z AUTO 19007KT 10SM CLR 15/M07 A3029 RMK AO2 SLP115 T01501072 10278 20133 50011
KBFI10.00614 650016.109.406.7VFRKBFI 120553Z 04006G14KT 10SM BKN065 16/09 A2993 RMK AO2 SLP135 T01610094 10239 20161 51017
KBFL10.009 28.907.2021.7VFRKBFL 120554Z 35009KT 10SM CLR 29/07 A2984 RMK AO2 SLP098 T02890072 10378 20283 51019
KBIL10.008 23.904.4019.5VFRKBIL 120553Z 23008KT 10SM FEW180 24/04 A2981 RMK AO2 SLP055 T02390044 10328 20239 58000
KBOI10.006 28.303.3025VFRKBOI 120553Z 10006KT 10SM CLR 28/03 A2982 RMK AO2 SLP060 T02830033 10361 20278 51012
KBUR10.006 20.0012.807.2VFRKBUR 120553Z 11006KT 10SM CLR 20/13 A2990 RMK AO2 SLP112 T02000128 10311 20200 51017 $
KBZN10.007 18.006.0012VFRKBZN 120456Z 04007KT 10SM CLR 18/06 A2985
KCMA8.000 16.7013.303.4VFRKCMA 120555Z AUTO 00000KT 8SM SCT006 17/13 A2990 RMK AO2 SLP133 T01670133 10222 20167 50009
KCNO10.000 21.709.4012.3VFRKCNO 120553Z AUTO 00000KT 10SM CLR 22/09 A2992 RMK AO2 SLP125 T02170094 10361 20200 51020
KCOS10.0011 22.2013.908.3VFRKCOS 120554Z 06011KT 10SM SCT160 22/14 A3013 RMK AO2 SLP100 T02220139 10322 20222 51018
KCPR10.005 20.600.6020VFRKCPR 120553Z AUTO 20005KT 10SM CLR 21/01 A2998 RMK AO2 SLP070 T02060006 10311 20189 51009
KCRQ9.000 60018.3016.102.2IFRKCRQ 120622Z AUTO 00000KT 9SM BKN006 18/16 A2990 RMK AO2 T01830161
KDEN10.001625 22.8015.007.8VFRKDEN 120553Z 15016G25KT 10SM FEW150 FEW220 23/15 A3005 RMK AO2 PK WND 15027/0522 SLP075 T02280150 10344 20228 55001
KEGE10.007 14.40-7.2021.6VFRKEGE 120556Z AUTO 10007KT 10SM CLR 14/M07 A3021 RMK AO2 SLP160 6//// T01441072 10294 20144 403170083 51012 PNO $
KELP10.007 32.207.8024.4VFRKELP 120551Z 17007KT 10SM SCT150 32/08 A2999 RMK AO2 SLP064 T03220078 10389 20317 53013
KEMT10.008 26.0012.0014VFRKEMT 120145Z 21008KT 10SM CLR 26/12 A2984
KEUG10.000 16.105.0011.1VFRKEUG 120554Z 00000KT 10SM SCT260 16/05 A2997 RMK AO2 SLP149 T01610050 10311 20133 51021
KFAT10.0011 28.9013.3015.6VFRKFAT 120553Z 30011KT 10SM CLR 29/13 A2984 RMK AO2 SLP099 T02890133 10383 20289 51017
KFLG10.000 18.904.4014.5VFRKFLG 120557Z AUTO 00000KT 10SM CLR 19/04 A3031 RMK AO2 SLP142 T01890044 10272 20189 50009
KFMN10.006 20.60-5.0025.6VFRKFMN 120553Z AUTO 01006KT 10SM CLR 21/M05 A3013 RMK AO2 SLP131 T02061050 10333 20206 51010
KFUL10.003 19.4013.306.1VFRKFUL 120553Z AUTO VRB03KT 10SM CLR 19/13 A2989 RMK AO2 SLP120 T01940133 10289 20194 50014
KGCN10.000 11.103.907.2VFRKGCN 120554Z AUTO 00000KT 10SM CLR 11/04 A3028 RMK AO2 SLP151 T01110039 10278 20111 51013
KGEG10.009 21.701.7020VFRKGEG 120553Z 23009KT 10SM FEW150 SCT200 22/02 A2973 RMK AO2 SLP049 T02170017 10289 20217 58002
KGJT10.008 25.00-8.9033.9VFRKGJT 120553Z AUTO 10008KT 10SM CLR 25/M09 A3001 RMK AO2 SLP082 T02501089 10344 20217 51009
KGPI10.003 15.605.0010.6VFRKGPI 120555Z 22003KT 10SM CLR 16/05 A2973 RMK AO2 SLP050 T01560050 10306 20144 58004
KHHR10.003 17.2013.903.3VFRKHHR 120553Z AUTO 24003KT 10SM CLR 17/14 A2991 RMK AO2 SLP126 T01720139 10217 20172 51015
KHLN10.004 21.70-0.6022.3VFRKHLN 120553Z AUTO 23004KT 10SM CLR 22/M01 A2980 RMK AO2 SLP066 T02171006 10339 20200 50005
KHND10.008 31.10-11.7042.8VFRKHND 120556Z AUTO 16008KT 10SM CLR 31/M12 A2990 RMK AO2 SLP103 T03111117 10394 20311 51015
KIFP10.001624 43.004.0039VFRKIFP 120050Z 16016G24KT 10SM FEW130 43/04 A2969
KINS10.004 27.90-17.9045.8VFRKINS 120558Z AUTO 17004KT 10SM CLR 28/M18 A2991 RMK AO2 SLP073 T02791179 10373 20268 52012 $
KJAC10.003 11.700.0011.7VFRKJAC 120556Z AUTO VRB03KT 10SM CLR 12/00 A3011 RMK AO2 SLP139 T01170000 10267 20117 51003
KLAS10.004 31.70-12.2043.9VFRKLAS 120556Z 22004KT 10SM CLR 32/M12 A2985 RMK AO2 SLP077 T03171122 10394 20317 51015
KLAX10.006 16.7013.902.8VFRKLAX 120553Z 26006KT 10SM FEW014 17/14 A2990 RMK SLP124 T01670139 10206 20167 51015 $
KLGB10.005 17.8014.403.4VFRKLGB 120553Z AUTO 34005KT 10SM CLR 18/14 A2990 RMK AO2 SLP124 T01780144 10244 20178 50013
KLSV10.006 32.40-12.1044.5VFRKLSV 120558Z AUTO 19006KT 10SM CLR 32/M12 A2981 RMK AO2 SLP065 T03241121 10403 20324 51015 $
KMFR10.004 22.207.2015VFRKMFR 120553Z AUTO 02004KT 10SM CLR 22/07 A2993 RMK AO2 SLP123 T02220072 10344 20222 51023
KMHV10.007 26.008.0018VFRKMHV 120600Z AUTO 25007KT 10SM CLR 26/08 A2996 RMK A01
KMRY10.003 90017.8012.805IFRKMRY 120554Z AUTO 29003KT 10SM BKN009 18/13 A2996 RMK AO2 SLP154 T01780128 10222 20172 50007
KMSO10.000 20.005.0015VFRKMSO 120553Z AUTO 00000KT 10SM CLR 20/05 A2978 RMK AO2 SLP061 T02000050 10322 20189 51009
KMYF10.005 19.4016.103.3VFRKMYF 120553Z AUTO 32005KT 10SM CLR 19/16 A2991 RMK AO2 SLP123 T01940161 10250 20194 51008
KNYL10.006 33.3015.0018.3VFRKNYL 120557Z AUTO 16006KT 10SM CLR 33/15 A2976 RMK AO2 SLP075 T03330150 10428 20333 51015 $
KOAK10.0010 90017.2013.903.3IFRKOAK 120553Z 30010KT 10SM BKN009 17/14 A2994 RMK AO2 SLP137 T01720139 10217 20172 50009
KOLM10.009 12.207.205VFRKOLM 120554Z AUTO 20009KT 10SM CLR 12/07 A2993 RMK AO2 SLP136 T01220072 10228 20122 51007
KONT10.003 21.708.9012.8VFRKONT 120553Z 26003KT 10SM CLR 22/09 A2992 RMK AO2 SLP114 T02170089 10350 20217 51020
KOTH5.004 1900MIST 12.2011.700.5MVFRKOTH 120556Z 28004KT 5SM BR BKN019 12/12 A3004 RMK AO2 SLP173 T01220117 10172 20122 50010
KOXR7.005 70014.4013.900.5IFRKOXR 120615Z AUTO 32005KT 7SM BKN007 14/14 A2990 RMK AO2 T01440139
KPAE10.004 700012.808.903.9VFRKPAE 120553Z AUTO 36004KT 10SM SCT041 BKN070 13/09 A2995 RMK AO2 SLP140 T01280089 10206 20128 51014
KPDX10.008 2500016.707.808.9VFRKPDX 120553Z 33008KT 10SM FEW100 BKN250 17/08 A2997 RMK AO2 SLP148 T01670078 10267 20167 51021
KPHX10.006 35.6013.3022.3VFRKPHX 120551Z 08006KT 10SM SCT150 SCT250 36/13 A2981 RMK AO2 SLP072 T03560133 10428 20350 51018
KPOC10.0011 32.0012.0020VFRKPOC 102347Z 25011KT 10SM CLR 32/12 A2990
KPRC10.009 23.307.8015.5VFRKPRC 120553Z AUTO 23009KT 10SM CLR 23/08 A3015 RMK AO2 SLP114 T02330078 10317 20222 50007
KPSC10.000 23.902.8021.1VFRKPSC 120553Z AUTO 00000KT 10SM CLR 24/03 A2976 RMK AO2 SLP073 T02390028 10356 20222 51026
KPSP10.000 35.003.9031.1VFRKPSP 120553Z 00000KT 10SM CLR 35/04 A2979 RMK AO2 SLP082 T03500039 10439 20344 51017
KRAL10.000 22.209.4012.8VFRKRAL 120553Z AUTO 00000KT 10SM CLR 22/09 A2992 RMK AO2 SLP115 T02220094 10344 20217 51022
KRDD10.003 27.8016.1011.7VFRKRDD 120553Z AUTO 06003KT 10SM CLR 28/16 A2982 RMK AO2 SLP092 T02780161 10350 20272 51020
KRIV9.003 21.007.9013.1VFRKRIV 120558Z AUTO 32003KT 9SM CLR 21/08 A2994 RMK AO2 SLP124 T02100079 10341 20193 51016
KRNM10.000 16.7012.204.5VFRKRNM 120553Z AUTO 00000KT 10SM CLR 17/12 A2993 RMK AO2 SLP119 T01670122 10317 20150 51008
KRNO10.004 21.105.6015.5VFRKRNO 120555Z 14004KT 10SM CLR 21/06 A3008 RMK AO2 SLP126 T02110056 10311 20211 51016
KSAC10.005 18.3013.305VFRKSAC 120553Z AUTO VRB05KT 10SM CLR 18/13 A2985 RMK AO2 SLP108 T01830133 10294 20183 51014
KSAN10.003 18.9016.102.8VFRKSAN 120551Z VRB03KT 10SM FEW013 19/16 A2992 RMK AO2 SLP130 T01890161 10228 20189 51009
KSBA8.004 14.4013.301.1VFRKSBA 120553Z AUTO 09004KT 8SM CLR 14/13 A2989 RMK AO2 SLP122 T01440133 10194 20139 51008 $
KSBD10.000 24.408.4016VFRKSBD 120620Z AUTO 00000KT 10SM CLR 24/08 A2993 RMK AO2 T02440084
KSBP10.009 14.4012.801.6VFRKSBP 120556Z AUTO 32009KT 10SM CLR 14/13 A2993 RMK AO2 SLP135 T01440128 10222 20144 50011
KSDM10.003 17.8015.602.2VFRKSDM 120553Z AUTO 27003KT 10SM CLR 18/16 A2991 RMK AO2 SLP123 T01780156 10233 20156 51010
KSEA10.005 600015.608.906.7VFRKSEA 120553Z 25005KT 10SM BKN060 16/09 A2994 RMK AO2 SLP145 T01560089 10244 20156 53017
KSEE10.004 20.0016.004VFRKSEE 120615Z AUTO 30004KT 10SM CLR 20/16 A2990 RMK AO2
KSFO10.009 16.7012.803.9VFRKSFO 120556Z 30009KT 10SM FEW008 17/13 A2992 RMK AO2 SLP133 T01670128 10211 20161 51010
KSJC10.005 17.8013.304.5VFRKSJC 120553Z 35005KT 10SM CLR 18/13 A2993 RMK AO2 SLP134 T01780133 10250 20178 50013
KSLC10.007 25.005.6019.4VFRKSLC 120554Z 11007KT 10SM SCT150 25/06 A2995 RMK AO2 SLP076 T02500056 10344 20250 50010
KSMF10.0014 18.9013.305.6VFRKSMF 120553Z 14014KT 10SM CLR 19/13 A2983 RMK AO2 SLP100 T01890133 10317 20189 51016
KSMO10.003 16.1013.902.2VFRKSMO 120551Z AUTO 11003KT 10SM CLR 16/14 A2991 RMK AO2 SLP126 T01610139 10200 20161 51016
KSMX9.000 14.4012.202.2VFRKSMX 120551Z AUTO 9SM CLR 14/12 A2994 RMK AO2 SLP141 T01440122 10206 20139 50007
KSNA10.004 18.3015.003.3VFRKSNA 120553Z 19004KT 10SM FEW015 18/15 A2990 RMK AO2 SLP122 LAST T01830150 10256 20183 50014
KSUN10.005 1100020.005.0015VFRKSUN 120615Z AUTO 09005KT 10SM BKN110 20/05 A3003 RMK AO2
KTOA10.0013 21.0017.004VFRKTOA 120047Z 28013KT 10SM FEW009 21/17 A2986
KTPH10.009 22.20-0.6022.8VFRKTPH 120556Z AUTO 33009KT 10SM CLR 22/M01 A3010 RMK AO2 SLP106 T02221006 10328 20217 51013
KTUS10.003 30.6012.2018.4VFRKTUS 120553Z 21003KT 10SM CLR 31/12 A2999 RMK AO2 SLP097 T03060122 10383 20306 50008
KVCV10.0012 0.000.000VFRKVCV 120145Z 18012KT 10SM SKC A2992
KVGT10.008 33.30-12.8046.1VFRKVGT 120553Z AUTO 22008KT 10SM CLR 33/M13 A2983 RMK AO2 SLP086 T03331128 10406 20333 51012
KVNY10.004 22.2012.2010VFRKVNY 120551Z AUTO 14004KT 10SM CLR 22/12 A2990 RMK AO2 SLP115 T02220122 10339 20222 51018
KWHP10.000 28.008.0020VFRKWHP 120255Z 00000KT 10SM SKC 28/08 A2989
KWJF10.009 26.10-3.3029.4VFRKWJF 120556Z AUTO 23009KT 10SM CLR 26/M03 A2996 RMK AO2 SLP119 T02611033 10356 20261 51016
KYKM10.0010 21.703.9017.8VFRKYKM 120553Z AUTO 34010KT 10SM CLR 22/04 A2979 RMK AO2 SLP080 T02170039 10317 20217 51014